Time;durP1;ratioP1;P1;durP2;ratioP2;P2;SDS_P1;SDS_P2;PMS_P1;PMS_P2;Temp;Humidity;BMP_temperature;BMP_pressure;BME280_temperature;BME280_humidity;BME280_pressure;Samples;Min_cycle;Max_cycle;Signal;HPM_P1;HPM_P2
2023/04/08 00:00:00;;;;;;;0.10;0.10;;;;;;;7.07;100.00;96917.09;5078292;28;20181;-70
2023/04/08 00:02:26;;;;;;;0.10;0.10;;;;;;;7.16;100.00;96915.88;5073451;28;20235;-71
2023/04/08 00:04:51;;;;;;;0.10;0.10;;;;;;;7.14;100.00;96917.06;5054933;28;20190;-70
2023/04/08 00:07:16;;;;;;;0.10;0.10;;;;;;;7.18;100.00;96915.69;5055132;28;20310;-70
2023/04/08 00:09:42;;;;;;;0.10;0.10;;;;;;;7.12;100.00;96916.47;5073163;28;20231;-70
2023/04/08 00:12:07;;;;;;;0.00;0.00;;;;;;;7.15;100.00;96918.66;5072581;28;20173;-70
2023/04/08 00:14:32;;;;;;;0.10;0.10;;;;;;;7.20;100.00;96917.06;5072804;28;20200;-70
2023/04/08 00:16:58;;;;;;;0.10;0.10;;;;;;;6.98;100.00;96920.88;5072218;28;20196;-70
2023/04/08 00:19:24;;;;;;;0.10;0.10;;;;;;;6.95;100.00;96916.06;5072609;28;20189;-70
2023/04/08 00:21:50;;;;;;;0.10;0.10;;;;;;;7.02;100.00;96922.88;5072819;28;20312;-70
2023/04/08 00:24:15;;;;;;;0.00;0.00;;;;;;;7.01;100.00;96910.88;5072870;28;20574;-70
2023/04/08 00:26:40;;;;;;;0.10;0.10;;;;;;;7.01;100.00;96913.47;5072509;28;20642;-71
2023/04/08 00:29:06;;;;;;;0.00;0.00;;;;;;;7.00;100.00;96911.06;5054668;28;20193;-70
2023/04/08 00:31:31;;;;;;;0.10;0.10;;;;;;;7.00;100.00;96922.28;5072475;28;20185;-70
2023/04/08 00:33:56;;;;;;;0.10;0.10;;;;;;;7.02;100.00;96912.44;5072506;28;20185;-70
2023/04/08 00:36:22;;;;;;;0.10;0.10;;;;;;;6.93;100.00;96916.28;5072701;28;20192;-70
2023/04/08 00:38:47;;;;;;;0.10;0.10;;;;;;;6.90;100.00;96918.47;5072640;28;20662;-71
2023/04/08 00:41:13;;;;;;;0.00;0.00;;;;;;;6.90;100.00;96915.88;5072750;28;20535;-70
2023/04/08 00:43:38;;;;;;;0.10;0.10;;;;;;;6.74;100.00;96921.47;5072544;28;20185;-71
2023/04/08 00:46:04;;;;;;;0.10;0.10;;;;;;;6.90;100.00;96921.91;5072352;28;20209;-70
2023/04/08 00:48:30;;;;;;;0.10;0.10;;;;;;;6.90;100.00;96919.28;5072301;28;20177;-71
2023/04/08 00:50:56;;;;;;;0.10;0.10;;;;;;;6.86;100.00;96925.88;5072223;28;20626;-70
2023/04/08 00:53:21;;;;;;;0.10;0.10;;;;;;;6.80;100.00;96921.47;5072666;28;20181;-69
2023/04/08 00:55:46;;;;;;;0.00;0.00;;;;;;;6.78;100.00;96933.09;5054332;28;20542;-70
2023/04/08 00:58:12;;;;;;;0.03;0.03;;;;;;;6.76;100.00;96941.09;5057023;28;20195;-70
2023/04/08 01:00:44;;;;;;;0.10;0.10;;;;;;;6.90;100.00;96932.31;5084375;28;20244;-70
2023/04/08 01:03:22;;;;;;;0.03;0.03;;;;;;;6.79;100.00;96929.50;5072398;28;20205;-70
2023/04/08 01:06:19;;;;;;;0.00;0.00;;;;;;;6.78;100.00;96935.69;5071992;28;20181;-70
2023/04/08 01:08:45;;;;;;;0.10;0.10;;;;;;;6.72;100.00;96934.69;5072366;28;20162;-70
2023/04/08 01:11:12;;;;;;;0.00;0.00;;;;;;;6.73;100.00;96927.69;5072322;28;20192;-71
2023/04/08 01:13:40;;;;;;;0.10;0.10;;;;;;;6.74;100.00;96932.69;5071969;28;20653;-71
2023/04/08 01:16:09;;;;;;;0.10;0.10;;;;;;;6.82;100.00;96936.91;5053967;28;20522;-70
2023/04/08 01:18:36;;;;;;;0.10;0.10;;;;;;;6.82;100.00;96929.09;5072414;28;20189;-70
2023/04/08 01:21:02;;;;;;;0.10;0.10;;;;;;;6.87;100.00;96931.91;5072417;28;20185;-70
2023/04/08 01:23:37;;;;;;;0.10;0.10;;;;;;;6.75;100.00;96939.50;5071469;28;20225;-70
2023/04/08 01:26:02;;;;;;;0.10;0.10;;;;;;;6.83;100.00;96936.72;5071650;28;20196;-70
2023/04/08 01:28:29;;;;;;;0.10;0.10;;;;;;;6.89;100.00;96937.72;5071965;28;20182;-70
2023/04/08 01:30:58;;;;;;;0.10;0.10;;;;;;;6.86;100.00;96931.09;5071694;28;20212;-70
2023/04/08 01:33:26;;;;;;;0.10;0.10;;;;;;;6.77;100.00;96937.50;5072072;28;20272;-70
2023/04/08 01:35:52;;;;;;;0.10;0.10;;;;;;;6.82;100.00;96937.72;5072130;28;20181;-70
2023/04/08 01:38:22;;;;;;;0.03;0.03;;;;;;;6.80;100.00;96931.88;5072147;28;20736;-70
2023/04/08 01:40:48;;;;;;;0.10;0.10;;;;;;;6.77;100.00;96931.50;5072010;28;20224;-71
2023/04/08 01:43:16;;;;;;;0.10;0.10;;;;;;;6.81;100.00;96937.91;5071402;28;20527;-71
2023/04/08 01:45:44;;;;;;;0.10;0.10;;;;;;;6.66;100.00;96931.06;5055905;28;20280;-70
2023/04/08 01:48:11;;;;;;;0.03;0.03;;;;;;;6.77;100.00;96932.28;5072148;28;20205;-70
2023/04/08 01:50:37;;;;;;;0.10;0.10;;;;;;;6.78;100.00;96933.91;5053838;28;20217;-70
2023/04/08 01:53:03;;;;;;;0.10;0.10;;;;;;;6.80;100.00;96938.91;5071328;28;20281;-70
2023/04/08 01:55:30;;;;;;;0.10;0.10;;;;;;;6.87;100.00;96932.69;5071381;28;20246;-70
2023/04/08 01:57:59;;;;;;;0.10;0.10;;;;;;;6.83;100.00;96930.69;5074116;28;20189;-70
2023/04/08 02:00:28;;;;;;;0.10;0.10;;;;;;;6.78;100.00;96933.91;5083100;28;20177;-69
2023/04/08 02:02:55;;;;;;;0.10;0.10;;;;;;;6.71;100.00;96927.06;5071544;28;20185;-71
2023/04/08 02:05:20;;;;;;;0.10;0.10;;;;;;;6.58;100.00;96930.44;5071795;28;20177;-70
2023/04/08 02:07:47;;;;;;;0.10;0.10;;;;;;;6.47;100.00;96929.22;5071593;28;20239;-70
2023/04/08 02:10:12;;;;;;;0.10;0.10;;;;;;;6.67;100.00;96927.47;5071811;28;20292;-70
2023/04/08 02:12:38;;;;;;;0.00;0.00;;;;;;;6.79;100.00;96934.72;5071515;28;20331;-71
2023/04/08 02:15:04;;;;;;;0.10;0.10;;;;;;;6.70;100.00;96934.06;5075388;28;20189;-70
2023/04/08 02:17:42;;;;;;;0.10;0.10;;;;;;;6.66;100.00;96925.06;5075116;28;20189;-70
2023/04/08 02:20:13;;;;;;;0.00;0.00;;;;;;;6.75;100.00;96925.66;5075307;28;20628;-70
2023/04/08 02:22:48;;;;;;;0.10;0.10;;;;;;;6.64;100.00;96925.25;5074726;28;20232;-70
2023/04/08 02:25:15;;;;;;;0.10;0.10;;;;;;;6.62;100.00;96936.88;5075185;28;20172;-70
2023/04/08 02:27:43;;;;;;;0.10;0.10;;;;;;;6.57;100.00;96929.66;5056863;28;20193;-70
2023/04/08 02:30:12;;;;;;;0.00;0.00;;;;;;;6.55;100.00;96929.06;5074822;28;20205;-70
2023/04/08 02:32:38;;;;;;;0.10;0.10;;;;;;;6.62;100.00;96931.69;5074730;28;20181;-70
2023/04/08 02:35:04;;;;;;;0.10;0.10;;;;;;;6.43;100.00;96932.41;5074699;28;20735;-70
2023/04/08 02:37:31;;;;;;;0.00;0.00;;;;;;;6.53;100.00;96933.66;5074784;28;20197;-70
2023/04/08 02:39:56;;;;;;;0.10;0.10;;;;;;;6.42;100.00;96936.81;5075127;28;20196;-70
2023/04/08 02:42:22;;;;;;;0.10;0.10;;;;;;;6.38;100.00;96934.81;5075338;28;20264;-70
2023/04/08 02:44:47;;;;;;;0.07;0.07;;;;;;;6.43;100.00;96928.03;5056134;28;20657;-70
2023/04/08 02:47:12;;;;;;;0.03;0.03;;;;;;;6.50;100.00;96931.44;5074359;28;20550;-71
2023/04/08 02:49:38;;;;;;;0.10;0.10;;;;;;;6.44;100.00;96932.25;5074674;28;20288;-71
2023/04/08 02:52:03;;;;;;;0.10;0.10;;;;;;;6.36;100.00;96937.59;5074580;28;20193;-70
2023/04/08 02:54:29;;;;;;;0.00;0.00;;;;;;;6.45;100.00;96935.66;5074788;28;20611;-70
2023/04/08 02:56:54;;;;;;;0.10;0.10;;;;;;;6.42;100.00;96928.22;5074305;28;20199;-71
2023/04/08 02:59:20;;;;;;;0.10;0.10;;;;;;;6.38;100.00;96933.03;5073601;28;20324;-70
2023/04/08 03:01:45;;;;;;;0.10;0.10;;;;;;;6.40;100.00;96930.22;5055953;28;20191;-71
2023/04/08 03:04:10;;;;;;;0.10;0.10;;;;;;;6.47;100.00;96929.22;5073914;28;20181;-70
2023/04/08 03:06:36;;;;;;;0.10;0.10;;;;;;;6.33;100.00;96935.41;5074188;28;20669;-70
2023/04/08 03:09:01;;;;;;;0.10;0.10;;;;;;;6.39;100.00;96933.81;5074034;28;20685;-70
2023/04/08 03:11:27;;;;;;;0.10;0.10;;;;;;;6.40;100.00;96935.44;5055877;28;20184;-70
2023/04/08 03:13:52;;;;;;;0.10;0.10;;;;;;;6.44;100.00;96934.84;5074163;28;20196;-70
2023/04/08 03:16:18;;;;;;;0.10;0.10;;;;;;;6.53;100.00;96935.44;5074128;28;20185;-70
2023/04/08 03:18:43;;;;;;;0.10;0.10;;;;;;;6.55;100.00;96936.06;5056467;28;20189;-71
2023/04/08 03:21:08;;;;;;;0.10;0.10;;;;;;;6.46;100.00;96939.84;5074062;28;20268;-71
2023/04/08 03:23:33;;;;;;;0.10;0.10;;;;;;;6.51;100.00;96929.66;5073668;28;20677;-71
2023/04/08 03:25:59;;;;;;;0.10;0.10;;;;;;;6.53;100.00;96938.06;5073663;28;20260;-72
2023/04/08 03:28:24;;;;;;;0.10;0.10;;;;;;;6.60;100.00;96941.47;5055772;28;20591;-71
2023/04/08 03:30:49;;;;;;;0.10;0.10;;;;;;;6.56;100.00;96940.28;5073935;28;20604;-72
2023/04/08 03:33:15;;;;;;;0.00;0.00;;;;;;;6.43;100.00;96942.84;5068649;28;20201;-72
2023/04/08 03:35:40;;;;;;;0.10;0.10;;;;;;;6.49;100.00;96940.25;5073940;28;20173;-71
2023/04/08 03:38:05;;;;;;;0.10;0.10;;;;;;;6.53;100.00;96944.06;5073311;28;20190;-72
2023/04/08 03:40:31;;;;;;;0.20;0.20;;;;;;;6.51;100.00;96943.47;5073670;28;20227;-72
2023/04/08 03:42:56;;;;;;;0.10;0.10;;;;;;;6.42;100.00;96949.84;5055700;28;20181;-72
2023/04/08 03:45:22;;;;;;;0.10;0.10;;;;;;;6.42;100.00;96949.03;5073634;28;20177;-71
2023/04/08 03:47:47;;;;;;;0.10;0.10;;;;;;;6.53;100.00;96949.28;5073337;28;20289;-72
2023/04/08 03:50:12;;;;;;;0.10;0.10;;;;;;;6.48;100.00;96951.66;5073650;28;20239;-72
2023/04/08 03:52:37;;;;;;;0.07;0.07;;;;;;;6.59;100.00;96952.88;5073616;28;20262;-72
2023/04/08 03:55:03;;;;;;;0.10;0.10;;;;;;;6.52;100.00;96937.25;5055149;28;20331;-70
2023/04/08 03:57:28;;;;;;;0.10;0.10;;;;;;;6.57;100.00;96939.28;5073492;28;20243;-70
2023/04/08 03:59:54;;;;;;;0.00;0.00;;;;;;;6.65;100.00;96944.28;5072902;28;20208;-70
2023/04/08 04:02:19;;;;;;;0.10;0.10;;;;;;;6.72;100.00;96944.31;5073532;28;20232;-70
2023/04/08 04:04:45;;;;;;;0.10;0.10;;;;;;;6.65;100.00;96941.69;5073287;28;20246;-70
2023/04/08 04:07:10;;;;;;;0.10;0.10;;;;;;;6.42;100.00;96936.81;5072985;28;20181;-71
2023/04/08 04:09:35;;;;;;;0.10;0.10;;;;;;;6.58;100.00;96946.88;5072754;28;20647;-70
2023/04/08 04:12:01;;;;;;;0.10;0.10;;;;;;;6.60;100.00;96946.69;5072819;28;20189;-70
2023/04/08 04:14:26;;;;;;;0.10;0.10;;;;;;;6.47;100.00;96933.63;5073127;28;20177;-69
2023/04/08 04:16:52;;;;;;;0.10;0.10;;;;;;;6.44;100.00;96947.06;5073290;28;20190;-71
2023/04/08 04:19:17;;;;;;;0.10;0.10;;;;;;;6.45;100.00;96948.66;5072811;28;20267;-70
2023/04/08 04:21:43;;;;;;;0.10;0.10;;;;;;;6.52;100.00;96937.25;5072278;28;20261;-70
2023/04/08 04:24:08;;;;;;;0.10;0.10;;;;;;;6.57;100.00;96942.69;5072874;28;20266;-70
2023/04/08 04:26:34;;;;;;;0.10;0.10;;;;;;;6.36;100.00;96942.81;5072529;28;20188;-70
2023/04/08 04:28:59;;;;;;;0.07;0.07;;;;;;;6.51;100.00;96942.66;5072667;28;20189;-70
2023/04/08 04:31:27;;;;;;;0.10;0.10;;;;;;;6.52;100.00;96947.66;5072758;28;20185;-70
2023/04/08 04:33:53;;;;;;;0.00;0.00;;;;;;;6.45;100.00;96954.66;5055016;28;20189;-70
2023/04/08 04:36:18;;;;;;;0.10;0.10;;;;;;;6.34;100.00;96951.84;5072159;28;20186;-70
2023/04/08 04:38:44;;;;;;;0.10;0.10;;;;;;;6.22;100.00;96957.59;5072691;28;20196;-70
2023/04/08 04:41:10;;;;;;;0.00;0.00;;;;;;;6.24;100.00;96960.78;5054707;28;20264;-71
2023/04/08 04:43:36;;;;;;;0.00;0.00;;;;;;;6.34;100.00;96951.84;5072786;28;20177;-70
2023/04/08 04:46:05;;;;;;;0.10;0.10;;;;;;;6.25;100.00;96959.00;5072818;28;20197;-70
2023/04/08 04:48:31;;;;;;;0.10;0.10;;;;;;;6.33;100.00;96958.84;5072868;28;20185;-70
2023/04/08 04:51:00;;;;;;;0.03;0.03;;;;;;;6.46;100.00;96960.69;5072503;28;20209;-70
2023/04/08 04:53:25;;;;;;;0.10;0.10;;;;;;;6.32;100.00;96962.44;5072480;28;20615;-69
2023/04/08 04:55:50;;;;;;;0.10;0.10;;;;;;;6.09;100.00;96962.75;5072378;28;20194;-70
2023/04/08 04:58:17;;;;;;;0.07;0.07;;;;;;;6.14;100.00;96962.16;5070899;28;20553;-70
2023/04/08 05:00:42;;;;;;;0.10;0.10;;;;;;;6.18;100.00;96964.19;5072142;28;20177;-70
2023/04/08 05:03:08;;;;;;;0.10;0.10;;;;;;;6.29;100.00;96973.25;5072652;28;20197;-70
2023/04/08 05:05:33;;;;;;;0.00;0.00;;;;;;;6.41;100.00;96982.06;5072364;28;20242;-70
2023/04/08 05:07:59;;;;;;;0.00;0.00;;;;;;;6.25;100.00;96980.63;5072346;28;20213;-70
2023/04/08 05:10:24;;;;;;;0.00;0.00;;;;;;;6.31;100.00;96981.66;5072537;28;20201;-70
2023/04/08 05:12:50;;;;;;;0.10;0.10;;;;;;;6.34;100.00;96988.28;5071326;28;20637;-70
2023/04/08 05:15:15;;;;;;;0.10;0.10;;;;;;;6.41;100.00;96987.28;5072357;28;20578;-71
2023/04/08 05:17:41;;;;;;;0.10;0.10;;;;;;;6.37;100.00;96988.69;5072145;28;20177;-70
2023/04/08 05:20:06;;;;;;;0.10;0.10;;;;;;;6.34;100.00;96983.88;5071997;28;20193;-70
2023/04/08 05:22:32;;;;;;;0.03;0.03;;;;;;;6.45;100.00;96985.91;5072159;28;20229;-70
2023/04/08 05:24:57;;;;;;;0.10;0.10;;;;;;;6.45;100.00;96990.31;5072104;28;20182;-70
2023/04/08 05:27:23;;;;;;;0.10;0.10;;;;;;;6.52;100.00;96986.72;5071586;28;20184;-71
2023/04/08 05:29:48;;;;;;;0.10;0.10;;;;;;;6.53;100.00;96979.72;5072212;28;20284;-70
2023/04/08 05:32:15;;;;;;;0.10;0.10;;;;;;;6.47;100.00;96988.31;5071995;28;20181;-70
2023/04/08 05:34:41;;;;;;;0.10;0.10;;;;;;;6.28;100.00;96992.47;5071818;28;20243;-71
2023/04/08 05:37:06;;;;;;;0.00;0.00;;;;;;;6.41;100.00;96995.09;5071527;28;20181;-71
2023/04/08 05:39:31;;;;;;;0.00;0.00;;;;;;;6.41;100.00;96999.53;5071528;28;20668;-71
2023/04/08 05:41:57;;;;;;;0.10;0.10;;;;;;;6.43;100.00;97000.09;5072056;28;20538;-70
2023/04/08 05:44:22;;;;;;;0.10;0.10;;;;;;;6.54;100.00;97004.75;5071842;28;20638;-70
2023/04/08 05:46:47;;;;;;;0.00;0.00;;;;;;;6.68;100.00;96998.59;5072046;28;20194;-70
2023/04/08 05:49:13;;;;;;;0.10;0.10;;;;;;;6.62;100.00;97002.00;5075010;28;20227;-71
2023/04/08 05:51:38;;;;;;;0.10;0.10;;;;;;;6.54;100.00;97002.97;5075661;28;20204;-71
2023/04/08 05:54:04;;;;;;;0.10;0.10;;;;;;;6.62;100.00;97008.00;5075315;28;20203;-71
2023/04/08 05:56:31;;;;;;;0.10;0.10;;;;;;;6.61;100.00;97002.97;5057862;28;20181;-71
2023/04/08 05:58:56;;;;;;;0.10;0.10;;;;;;;6.59;100.00;97010.19;5074736;28;20181;-71
2023/04/08 06:01:22;;;;;;;0.00;0.00;;;;;;;6.61;100.00;97016.81;5075378;28;20254;-72
2023/04/08 06:03:47;;;;;;;0.10;0.10;;;;;;;6.62;100.00;97015.81;5075529;28;20198;-71
2023/04/08 06:06:12;;;;;;;0.10;0.10;;;;;;;6.56;100.00;97023.59;5075439;28;20181;-72
2023/04/08 06:08:38;;;;;;;0.10;0.10;;;;;;;6.71;100.00;97016.44;5075362;28;20197;-71
2023/04/08 06:11:04;;;;;;;0.10;0.10;;;;;;;6.52;100.00;97028.38;5056093;28;20201;-71
2023/04/08 06:13:30;;;;;;;0.10;0.10;;;;;;;6.51;100.00;97028.59;5075185;28;20189;-71
2023/04/08 06:15:56;;;;;;;0.10;0.10;;;;;;;6.21;100.00;97036.66;5057399;28;20622;-71
2023/04/08 06:18:21;;;;;;;0.10;0.10;;;;;;;6.23;100.00;97033.88;5075119;28;20181;-71
2023/04/08 06:20:46;;;;;;;0.10;0.10;;;;;;;6.44;100.00;97038.16;5075047;28;20194;-71
2023/04/08 06:23:12;;;;;;;0.10;0.10;;;;;;;6.53;100.00;97032.59;5074997;28;20273;-71
2023/04/08 06:25:37;;;;;;;0.00;0.00;;;;;;;6.49;100.00;97036.59;5074642;28;20532;-71
2023/04/08 06:28:03;;;;;;;0.10;0.10;;;;;;;6.42;100.00;97035.75;5074971;28;20212;-71
2023/04/08 06:30:28;;;;;;;0.10;0.10;;;;;;;6.37;100.00;97042.53;5074798;28;20198;-71
2023/04/08 06:32:53;;;;;;;0.10;0.10;;;;;;;6.42;100.00;97037.56;5075194;28;20181;-71
2023/04/08 06:35:19;;;;;;;0.10;0.10;;;;;;;6.69;100.00;97037.44;5074790;28;20653;-70
2023/04/08 06:37:44;;;;;;;0.10;0.10;;;;;;;6.75;100.00;97041.06;5056918;28;20557;-71
2023/04/08 06:40:10;;;;;;;0.10;0.10;;;;;;;6.78;100.00;97045.91;5074947;28;20177;-71
2023/04/08 06:42:37;;;;;;;0.10;0.10;;;;;;;6.76;100.00;97047.09;5074685;28;20185;-71
2023/04/08 06:45:03;;;;;;;0.10;0.10;;;;;;;6.79;100.00;97038.91;5075022;28;20181;-71
2023/04/08 06:47:28;;;;;;;0.10;0.10;;;;;;;6.90;100.00;97049.56;5056434;28;20196;-70
2023/04/08 06:49:54;;;;;;;0.10;0.10;;;;;;;6.97;100.00;97047.75;5075066;28;20197;-71
2023/04/08 06:52:19;;;;;;;0.10;0.10;;;;;;;7.12;100.00;97055.41;5074572;28;20712;-71
2023/04/08 06:54:45;;;;;;;0.10;0.10;;;;;;;7.18;100.00;97049.41;5074850;28;20173;-71
2023/04/08 06:57:10;;;;;;;0.10;0.10;;;;;;;7.15;100.00;97052.41;5074513;28;20197;-72
2023/04/08 06:59:36;;;;;;;0.10;0.10;;;;;;;6.89;100.00;97060.97;5056176;28;20185;-71
2023/04/08 07:02:01;;;;;;;0.10;0.10;;;;;;;6.66;100.00;97068.31;5073761;28;20243;-71
2023/04/08 07:04:26;;;;;;;0.10;0.10;;;;;;;6.62;100.00;97054.88;5074714;28;20188;-71
2023/04/08 07:06:52;;;;;;;0.00;0.00;;;;;;;6.52;100.00;97053.63;5073886;28;20231;-71
2023/04/08 07:09:17;;;;;;;0.10;0.10;;;;;;;6.50;100.00;97066.84;5073879;28;20189;-72
2023/04/08 07:11:42;;;;;;;0.10;0.10;;;;;;;6.58;100.00;97065.84;5073331;28;20216;-71
2023/04/08 07:14:08;;;;;;;0.10;0.10;;;;;;;6.76;100.00;97068.72;5074197;28;20190;-71
2023/04/08 07:16:33;;;;;;;0.00;0.00;;;;;;;6.73;100.00;97063.13;5074123;28;20184;-74
2023/04/08 07:18:59;;;;;;;0.10;0.10;;;;;;;6.74;100.00;97072.56;5073997;28;20186;-74
2023/04/08 07:21:24;;;;;;;0.10;0.10;;;;;;;6.72;100.00;97067.53;5073656;28;20612;-71
2023/04/08 07:23:49;;;;;;;0.10;0.10;;;;;;;7.02;100.00;97070.63;5073983;28;20173;-72
2023/04/08 07:26:15;;;;;;;0.10;0.10;;;;;;;7.06;100.00;97070.03;5055349;28;20271;-73
2023/04/08 07:28:40;;;;;;;0.00;0.00;;;;;;;7.16;100.00;97072.25;5073971;28;20212;-72
2023/04/08 07:31:14;;;;;;;0.10;0.10;;;;;;;7.13;100.00;97075.28;5073833;28;20232;-72
2023/04/08 07:33:40;;;;;;;0.10;0.10;;;;;;;7.21;100.00;97079.47;5074130;28;20189;-71
2023/04/08 07:36:05;;;;;;;0.00;0.00;;;;;;;7.49;100.00;97075.72;5073411;28;20215;-72
2023/04/08 07:38:31;;;;;;;0.00;0.00;;;;;;;7.61;100.00;97081.13;5073728;28;20182;-72
2023/04/08 07:40:57;;;;;;;0.10;0.10;;;;;;;7.55;100.00;97076.72;5073738;28;20251;-71
2023/04/08 07:43:22;;;;;;;0.00;0.00;;;;;;;7.69;100.00;97086.13;5073816;28;20586;-71
2023/04/08 07:45:47;;;;;;;0.10;0.10;;;;;;;7.95;100.00;97093.16;5073462;28;20211;-72
2023/04/08 07:48:13;;;;;;;0.10;0.10;;;;;;;8.00;100.00;97080.31;5073606;28;20178;-72
2023/04/08 07:50:38;;;;;;;0.00;0.00;;;;;;;7.83;100.00;97094.78;5073018;28;20204;-70
2023/04/08 07:53:03;;;;;;;0.10;0.10;;;;;;;8.04;100.00;97091.94;5073146;28;20191;-72
2023/04/08 07:55:35;;;;;;;0.00;0.00;;;;;;;8.30;100.00;97091.94;5073510;28;20197;-71
2023/04/08 07:58:00;;;;;;;0.10;0.10;;;;;;;8.37;100.00;97086.69;5072200;28;20186;-68
2023/04/08 08:00:26;;;;;;;0.10;0.10;;;;;;;7.96;100.00;97081.72;5073154;28;20181;-71
2023/04/08 08:02:51;;;;;;;0.00;0.00;;;;;;;7.96;100.00;97089.56;5073019;28;20272;-72
2023/04/08 08:05:17;;;;;;;0.10;0.10;;;;;;;8.21;100.00;97090.53;5072982;28;20212;-71
2023/04/08 08:07:42;;;;;;;0.10;0.10;;;;;;;8.78;100.00;97091.59;5073100;28;20177;-70
2023/04/08 08:10:08;;;;;;;0.10;0.10;;;;;;;8.59;100.00;97093.25;5071910;28;20220;-73
2023/04/08 08:12:34;;;;;;;0.03;0.03;;;;;;;8.05;100.00;97092.75;5072024;28;20256;-70
2023/04/08 08:14:59;;;;;;;0.10;0.10;;;;;;;8.13;100.00;97092.56;5073096;28;20225;-71
2023/04/08 08:17:25;;;;;;;0.00;0.00;;;;;;;8.07;100.00;97098.59;5072901;28;20173;-69
2023/04/08 08:19:50;;;;;;;0.10;0.10;;;;;;;8.01;100.00;97096.78;5073027;28;20583;-69
2023/04/08 08:22:15;;;;;;;0.00;0.00;;;;;;;8.06;100.00;97103.00;5070884;28;20232;-72
2023/04/08 08:24:41;;;;;;;0.10;0.10;;;;;;;8.06;100.00;97104.81;5065377;28;20192;-71
2023/04/08 08:27:09;;;;;;;0.10;0.10;;;;;;;8.18;100.00;97101.38;5071646;28;20197;-70
2023/04/08 08:29:35;;;;;;;0.00;0.00;;;;;;;8.16;100.00;97113.81;5065682;28;20197;-70
2023/04/08 08:32:02;;;;;;;0.10;0.10;;;;;;;8.26;100.00;97102.97;5071610;28;20283;-70
2023/04/08 08:34:28;;;;;;;0.10;0.10;;;;;;;8.47;100.00;97110.56;5072320;28;20584;-70
2023/04/08 08:36:53;;;;;;;0.00;0.00;;;;;;;8.62;100.00;97108.53;5072146;28;20178;-71
2023/04/08 08:39:19;;;;;;;0.00;0.00;;;;;;;8.80;100.00;97117.53;5070727;28;20193;-71
2023/04/08 08:41:44;;;;;;;0.10;0.10;;;;;;;8.74;100.00;97113.94;5072243;28;20176;-70
2023/04/08 08:44:11;;;;;;;0.10;0.10;;;;;;;8.53;100.00;97119.41;5072205;28;20276;-70
2023/04/08 08:46:46;;;;;;;0.10;0.10;;;;;;;8.85;100.00;97122.94;5072227;28;20211;-70
2023/04/08 08:49:11;;;;;;;0.10;0.10;;;;;;;9.35;100.00;97121.28;5054577;28;20540;-72
2023/04/08 08:51:38;;;;;;;0.00;0.00;;;;;;;9.85;100.00;97124.78;5072701;28;20218;-70
2023/04/08 08:54:03;;;;;;;0.07;0.07;;;;;;;9.23;100.00;97125.56;5072341;28;20645;-70
2023/04/08 08:56:29;;;;;;;0.10;0.10;;;;;;;9.01;100.00;97135.53;5072530;28;20192;-71
2023/04/08 08:58:55;;;;;;;0.10;0.10;;;;;;;9.21;100.00;97128.38;5071894;28;20177;-70
2023/04/08 09:01:42;;;;;;;0.10;0.10;;;;;;;9.24;100.00;97129.78;5072324;28;20551;-70
2023/04/08 09:04:15;;;;;;;0.10;0.10;;;;;;;9.63;98.96;97134.00;5054441;28;20530;-71
2023/04/08 09:06:42;;;;;;;0.10;0.10;;;;;;;9.33;98.74;97142.41;5072469;28;20557;-71
2023/04/08 09:09:11;;;;;;;0.10;0.10;;;;;;;9.36;99.31;97131.50;5072222;28;20188;-70
2023/04/08 09:11:39;;;;;;;0.07;0.07;;;;;;;9.80;95.06;97130.66;5071529;28;20314;-70
2023/04/08 09:14:05;;;;;;;0.10;0.10;;;;;;;10.08;91.41;97132.03;5072601;28;20181;-70
2023/04/08 09:16:31;;;;;;;0.10;0.10;;;;;;;10.06;90.49;97132.25;5072450;28;20542;-70
2023/04/08 09:19:09;;;;;;;0.10;0.10;;;;;;;10.56;90.77;97130.41;5072455;28;20260;-70
2023/04/08 09:21:35;;;;;;;0.10;0.10;;;;;;;10.38;90.75;97136.41;5072604;28;20627;-69
2023/04/08 09:24:00;;;;;;;0.10;0.10;;;;;;;10.32;87.84;97141.72;5076213;28;20231;-70
2023/04/08 09:26:26;;;;;;;0.10;0.10;;;;;;;9.68;89.95;97136.78;5057490;28;20282;-70
2023/04/08 09:29:02;;;;;;;0.10;0.10;;;;;;;9.75;92.83;97137.53;5076344;28;20575;-69
2023/04/08 09:31:29;;;;;;;0.10;0.10;;;;;;;10.09;89.85;97146.72;5076248;28;20212;-70
2023/04/08 09:33:57;;;;;;;0.00;0.00;;;;;;;10.00;85.52;97131.28;5076164;28;20199;-71
2023/04/08 09:36:22;;;;;;;0.00;0.00;;;;;;;10.17;86.84;97136.81;5075850;28;20181;-71
2023/04/08 09:38:48;;;;;;;0.00;0.00;;;;;;;9.89;82.05;97147.69;5076331;28;20570;-70
2023/04/08 09:41:15;;;;;;;0.10;0.10;;;;;;;9.91;81.72;97144.88;5076400;28;20284;-70
2023/04/08 09:43:47;;;;;;;0.00;0.00;;;;;;;9.50;82.97;97137.50;5076065;28;20201;-69
2023/04/08 09:46:13;;;;;;;0.00;0.00;;;;;;;9.88;82.91;97138.22;5076027;28;20177;-69
2023/04/08 09:48:45;;;;;;;0.10;0.10;;;;;;;9.96;79.72;97137.97;5075937;28;20680;-69
2023/04/08 09:51:15;;;;;;;0.03;0.03;;;;;;;10.06;81.58;97132.25;5075890;28;20209;-70
2023/04/08 09:53:46;;;;;;;0.10;0.10;;;;;;;10.11;81.69;97129.78;5075933;28;20174;-70
2023/04/08 09:56:13;;;;;;;0.03;0.03;;;;;;;10.43;77.39;97133.13;5075902;28;20253;-70
2023/04/08 09:58:45;;;;;;;0.00;0.00;;;;;;;10.26;75.70;97125.03;5074972;28;20219;-70
2023/04/08 10:01:13;;;;;;;0.07;0.07;;;;;;;10.16;75.69;97139.63;5075726;28;20174;-70
2023/04/08 10:03:53;;;;;;;0.10;0.10;;;;;;;9.80;79.12;97145.56;5075134;28;20630;-70
2023/04/08 10:06:21;;;;;;;0.07;0.07;;;;;;;10.31;75.82;97134.88;5075554;28;20191;-70
2023/04/08 10:08:46;;;;;;;0.10;0.10;;;;;;;10.51;74.05;97139.94;5075775;28;20196;-70
2023/04/08 10:11:15;;;;;;;0.10;0.10;;;;;;;9.98;66.59;97156.88;5074922;28;20201;-70
2023/04/08 10:13:41;;;;;;;0.10;0.10;;;;;;;9.97;67.19;97144.00;5071501;28;20182;-69
2023/04/08 10:16:16;;;;;;;0.10;0.10;;;;;;;10.10;69.56;97135.22;5075008;28;20197;-70
2023/04/08 10:18:43;;;;;;;0.10;0.10;;;;;;;9.96;70.53;97145.84;5075602;28;20185;-70
2023/04/08 10:21:30;;;;;;;0.10;0.10;;;;;;;10.33;69.72;97140.69;5075662;28;20282;-69
2023/04/08 10:23:58;;;;;;;0.00;0.00;;;;;;;10.42;66.45;97131.56;5075579;28;20188;-71
2023/04/08 10:26:43;;;;;;;0.03;0.03;;;;;;;10.15;66.60;97140.63;5074202;28;20277;-71
2023/04/08 10:29:17;;;;;;;0.00;0.00;;;;;;;9.97;68.06;97138.78;5075241;28;20238;-71
2023/04/08 10:31:48;;;;;;;0.10;0.10;;;;;;;9.91;63.08;97142.25;5075750;28;20186;-71
2023/04/08 10:34:25;;;;;;;0.10;0.10;;;;;;;9.88;65.90;97137.41;5074492;28;20232;-71
2023/04/08 10:36:51;;;;;;;0.10;0.10;;;;;;;10.06;68.38;97142.72;5075113;28;20169;-70
2023/04/08 10:39:18;;;;;;;0.00;0.00;;;;;;;9.78;67.95;97144.94;5056992;28;20585;-70
2023/04/08 10:41:48;;;;;;;0.10;0.10;;;;;;;9.87;67.33;97135.81;5057408;28;20173;-70
2023/04/08 10:44:24;;;;;;;0.10;0.10;;;;;;;9.58;68.52;97150.34;5074887;28;20576;-70
2023/04/08 10:46:50;;;;;;;0.07;0.07;;;;;;;9.36;69.41;97147.22;5074903;28;20196;-69
2023/04/08 10:49:16;;;;;;;0.10;0.10;;;;;;;9.69;69.25;97144.41;5074761;28;20272;-70
2023/04/08 10:51:43;;;;;;;0.10;0.10;;;;;;;9.60;67.25;97140.44;5075095;28;20269;-69
2023/04/08 10:54:10;;;;;;;0.10;0.10;;;;;;;9.43;68.89;97145.38;5074796;28;20185;-70
2023/04/08 10:56:43;;;;;;;0.10;0.10;;;;;;;9.60;68.92;97141.25;5059879;28;20275;-70
2023/04/08 10:59:09;;;;;;;0.00;0.00;;;;;;;9.71;68.17;97147.59;5077037;28;20385;-71
2023/04/08 11:01:43;;;;;;;0.10;0.10;;;;;;;9.77;66.38;97145.97;5074388;28;20181;-71
2023/04/08 11:04:14;;;;;;;0.10;0.10;;;;;;;9.56;65.80;97147.91;5073336;28;20185;-71
2023/04/08 11:06:41;;;;;;;0.10;0.10;;;;;;;9.63;65.64;97147.06;5073296;28;20645;-70
2023/04/08 11:09:07;;;;;;;0.10;0.10;;;;;;;9.65;65.32;97145.84;5074355;28;20483;-70
2023/04/08 11:11:33;;;;;;;0.10;0.10;;;;;;;9.57;66.64;97159.19;5073722;28;20742;-71
2023/04/08 11:13:59;;;;;;;0.00;0.00;;;;;;;9.63;66.62;97150.50;5073268;28;20267;-71
2023/04/08 11:16:26;;;;;;;0.10;0.10;;;;;;;9.48;65.73;97147.34;5073884;28;20311;-71
2023/04/08 11:18:52;;;;;;;0.10;0.10;;;;;;;9.80;65.78;97145.56;5055869;28;20223;-70
2023/04/08 11:21:18;;;;;;;0.10;0.10;;;;;;;9.71;63.34;97146.81;5054904;28;20566;-70
2023/04/08 11:23:44;;;;;;;0.10;0.10;;;;;;;10.03;62.56;97143.13;5073815;28;20205;-70
2023/04/08 11:26:10;;;;;;;0.10;0.10;;;;;;;9.86;61.23;97137.63;5073402;28;20206;-71
2023/04/08 11:28:36;;;;;;;0.03;0.03;;;;;;;9.83;58.11;97137.25;5056141;28;20203;-71
2023/04/08 11:31:03;;;;;;;0.10;0.10;;;;;;;9.91;61.84;97140.44;5073826;28;20292;-71